This is the latest recevied weather packets stored in our database for station/object KCXW. If no packets are shown the sender has not sent any weather packets the latest 10 day(s).
| Time | Temp. | Humidity | Pressure | Rain* | Wind** | Luminosity | Snow |
|---|---|---|---|---|---|---|---|
| 1777736613 | 18.89° C | 52% | 1020 hPa | - | - | - | - |
| 1777736014 | 16.67° C | 67% | 1020 hPa | - | - | - | - |
| 1777735409 | 16.67° C | 67% | 1020 hPa | - | - | - | - |
| 1777734811 | 16.67° C | 67% | 1020 hPa | - | - | - | - |
| 1777734210 | 16.67° C | 67% | 1020 hPa | - | - | - | - |
| 1777733611 | 15.56° C | 72% | 1020.3 hPa | - | - | - | - |
| 1777733011 | 15° C | 82% | 1020.3 hPa | - | - | - | - |
| 1777732413 | 15° C | 82% | 1020.3 hPa | - | - | - | - |
| 1777731810 | 15° C | 82% | 1020.3 hPa | - | - | - | - |
| 1777731210 | 13.89° C | 82% | 1020.3 hPa | - | - | - | - |
| 1777730613 | 13.89° C | 82% | 1020.3 hPa | - | - | - | - |
| 1777730013 | 12.78° C | 93% | 1020 hPa | - | - | - | - |
| 1777729410 | 12.78° C | 93% | 1020 hPa | - | - | - | - |
| 1777728814 | 11.67° C | 100% | 1020 hPa | - | - | - | - |
| 1777728213 | 11.67° C | 100% | 1020 hPa | - | - | - | - |
| 1777727612 | 10.56° C | 100% | 1019.6 hPa | - | - | - | - |
| 1777727012 | 10.56° C | 100% | 1019.6 hPa | - | - | - | - |
| 1777726407 | 10° C | 99% | 1019.6 hPa | - | - | - | - |
| 1777725811 | 10° C | 99% | 1019.3 hPa | - | - | - | - |
| 1777725212 | 10° C | 99% | 1019.3 hPa | - | - | - | - |
| 1777724610 | 10° C | 99% | 1019.3 hPa | - | - | - | - |
| 1777724010 | 8.89° C | 100% | 1019 hPa | - | - | - | - |
| 1777723412 | 8.89° C | 100% | 1019 hPa | - | - | - | - |
| 1777722811 | 7.78° C | 100% | 1018.6 hPa | - | - | - | - |
| 1777722211 | 7.78° C | 100% | 1018.6 hPa | - | - | - | - |
* Rain since midnight (hover to see other rain measurements)
** Current wind speed in m/s (hover to see current wind gust speed)